createdAt,value
2019-05-09T00:01:33.624Z,35.27
2019-05-09T00:04:04.385Z,34.87
2019-05-09T00:06:34.967Z,33.93
2019-05-09T00:09:06.746Z,32.00
2019-05-09T00:11:37.411Z,29.47
2019-05-09T00:14:08.051Z,24.77
2019-05-09T00:16:38.674Z,23.07
2019-05-09T00:19:10.664Z,22.10
2019-05-09T00:21:43.702Z,20.33
2019-05-09T00:24:14.390Z,21.27
2019-05-09T00:26:45.116Z,24.50
2019-05-09T00:29:33.502Z,22.50
2019-05-09T00:32:06.134Z,29.27
2019-05-09T00:34:38.323Z,30.87
2019-05-09T00:37:10.347Z,31.00
2019-05-09T00:39:43.313Z,32.30
2019-05-09T00:42:13.818Z,31.53
2019-05-09T00:44:49.475Z,32.60
2019-05-09T00:47:24.652Z,38.17
2019-05-09T00:49:55.332Z,37.57
2019-05-09T00:52:27.726Z,41.43
2019-05-09T00:54:58.353Z,40.50
2019-05-09T00:57:36.084Z,39.77
2019-05-09T01:00:10.392Z,39.87
2019-05-09T01:02:43.377Z,40.83
2019-05-09T01:05:14.435Z,43.90
2019-05-09T01:07:45.078Z,48.07
2019-05-09T01:10:16.361Z,59.00
2019-05-09T01:12:48.327Z,68.20
2019-05-09T01:15:19.034Z,62.40
2019-05-09T01:17:49.712Z,64.77
2019-05-09T01:20:24.168Z,61.07
2019-05-09T01:22:54.552Z,53.53
2019-05-09T01:25:25.868Z,57.53
2019-05-09T01:27:58.119Z,48.67
2019-05-09T01:30:28.841Z,47.77
2019-05-09T01:33:03.992Z,47.40
2019-05-09T01:35:34.669Z,42.10
2019-05-09T01:38:05.800Z,41.03
2019-05-09T01:40:39.510Z,39.57
2019-05-09T01:43:10.211Z,41.57
2019-05-09T01:45:43.040Z,36.97
2019-05-09T01:48:14.115Z,38.87
2019-05-09T01:50:44.953Z,39.63
2019-05-09T01:53:17.117Z,39.10
2019-05-09T01:56:03.742Z,39.93
2019-05-09T01:58:34.744Z,35.70
2019-05-09T02:01:07.087Z,34.87
2019-05-09T02:03:37.742Z,34.07
2019-05-09T02:06:08.520Z,30.50
2019-05-09T02:08:40.785Z,28.70
2019-05-09T02:11:13.282Z,28.33
2019-05-09T02:13:44.300Z,27.57
2019-05-09T02:16:16.573Z,29.47
2019-05-09T02:18:53.497Z,31.33
2019-05-09T02:21:24.222Z,31.23
2019-05-09T02:23:54.991Z,32.40
2019-05-09T02:26:25.639Z,30.67
2019-05-09T02:28:56.315Z,32.47
2019-05-09T02:31:26.902Z,33.33
2019-05-09T02:33:57.537Z,32.93
2019-05-09T02:36:29.618Z,32.60
2019-05-09T02:39:00.344Z,31.93
2019-05-09T02:41:31.027Z,30.40
2019-05-09T02:44:01.623Z,30.93
2019-05-09T02:46:33.861Z,31.43
2019-05-09T02:49:04.660Z,31.13
2019-05-09T02:51:38.415Z,29.77
2019-05-09T02:54:09.887Z,32.53
2019-05-09T02:56:40.414Z,34.57
2019-05-09T02:59:12.617Z,35.53
2019-05-09T03:02:00.182Z,34.60
2019-05-09T03:04:30.806Z,33.90
2019-05-09T03:07:01.352Z,35.20
2019-05-09T03:09:31.948Z,38.17
2019-05-09T03:12:21.149Z,33.33
2019-05-09T03:14:34.786Z,32.03
2019-05-09T03:17:08.489Z,36.63
2019-05-09T03:19:38.615Z,37.03
2019-05-09T03:22:20.405Z,32.40
2019-05-09T03:24:51.129Z,31.70
2019-05-09T03:27:35.664Z,26.23
2019-05-09T03:30:11.994Z,23.50
2019-05-09T03:32:41.115Z,21.70
2019-05-09T03:35:11.751Z,20.33
2019-05-09T03:37:42.339Z,17.17
2019-05-09T03:40:13.102Z,12.60
2019-05-09T03:42:43.940Z,12.33
2019-05-09T03:45:18.208Z,10.47
2019-05-09T03:47:58.184Z,9.60
2019-05-09T03:50:28.458Z,9.27
2019-05-09T03:52:58.982Z,9.77
2019-05-09T03:55:32.818Z,11.13
2019-05-09T03:58:10.904Z,7.23
2019-05-09T04:00:41.590Z,6.80
2019-05-09T04:03:12.508Z,9.20
2019-05-09T04:05:55.511Z,8.87
2019-05-09T04:08:19.137Z,7.93
2019-05-09T04:10:52.443Z,9.17
2019-05-09T04:13:25.195Z,10.23
2019-05-09T04:15:58.080Z,9.33
2019-05-09T04:18:29.401Z,9.30
2019-05-09T04:20:59.991Z,8.20
2019-05-09T04:23:30.580Z,10.33
2019-05-09T04:26:02.753Z,7.03
2019-05-09T04:28:33.742Z,8.40
2019-05-09T04:31:04.315Z,7.40
2019-05-09T04:33:34.933Z,6.60
2019-05-09T04:36:05.532Z,5.67
2019-05-09T04:38:39.784Z,5.73
2019-05-09T04:41:08.434Z,4.93
2019-05-09T04:43:40.650Z,5.70
2019-05-09T04:46:12.928Z,5.30
2019-05-09T04:48:43.562Z,4.43
2019-05-09T04:51:15.422Z,4.50
2019-05-09T04:53:47.969Z,4.20
2019-05-09T04:56:20.373Z,6.30
2019-05-09T04:58:50.952Z,4.97
2019-05-09T05:01:23.152Z,5.43
2019-05-09T05:03:57.311Z,5.13
2019-05-09T05:06:28.187Z,5.93
2019-05-09T05:08:58.980Z,7.10
2019-05-09T05:11:29.693Z,4.73
2019-05-09T05:14:03.265Z,4.37
2019-05-09T05:16:38.938Z,4.13
2019-05-09T05:19:09.258Z,4.20
2019-05-09T05:21:40.179Z,3.70
2019-05-09T05:24:12.368Z,4.07
2019-05-09T05:26:43.012Z,3.83
2019-05-09T05:29:13.837Z,4.30
2019-05-09T05:31:47.759Z,3.63
2019-05-09T05:34:22.417Z,3.83
2019-05-09T05:36:53.031Z,3.27
2019-05-09T05:39:23.736Z,3.50
2019-05-09T05:41:55.055Z,3.07
2019-05-09T05:44:28.094Z,3.57
2019-05-09T05:47:02.704Z,3.57
2019-05-09T05:49:33.355Z,3.90
2019-05-09T05:52:03.993Z,4.43
2019-05-09T05:54:34.665Z,4.57
2019-05-09T05:57:05.263Z,4.77
2019-05-09T05:59:40.392Z,5.47
2019-05-09T06:02:08.860Z,4.73
2019-05-09T06:04:42.202Z,5.03
2019-05-09T06:07:12.818Z,5.30
2019-05-09T06:09:43.423Z,10.77
2019-05-09T06:12:14.063Z,6.07
2019-05-09T06:14:45.480Z,5.20
2019-05-09T06:17:18.100Z,6.57
2019-05-09T06:19:48.486Z,6.93
2019-05-09T06:22:19.108Z,6.50
2019-05-09T06:24:49.740Z,7.53
2019-05-09T06:27:20.923Z,7.97
2019-05-09T06:29:51.634Z,4.87
2019-05-09T06:32:22.508Z,4.70
2019-05-09T06:34:53.101Z,7.03
2019-05-09T06:37:23.861Z,5.97
2019-05-09T06:39:54.490Z,3.73
2019-05-09T06:42:25.548Z,3.27
2019-05-09T06:44:58.441Z,3.37
2019-05-09T06:47:33.756Z,3.23
2019-05-09T06:50:08.077Z,3.20
2019-05-09T06:52:38.801Z,2.87
2019-05-09T06:55:09.506Z,2.50
2019-05-09T06:57:42.824Z,2.87
2019-05-09T07:00:20.595Z,2.80
2019-05-09T07:03:00.876Z,3.20
2019-05-09T07:05:35.913Z,2.73
2019-05-09T07:08:08.268Z,2.50
2019-05-09T07:10:38.876Z,2.80
2019-05-09T07:13:09.650Z,2.30
2019-05-09T07:15:40.374Z,2.47
2019-05-09T07:18:10.967Z,2.30
2019-05-09T07:20:41.562Z,1.87
2019-05-09T07:23:12.282Z,2.30
2019-05-09T07:25:44.516Z,2.40
2019-05-09T07:28:15.086Z,2.30
2019-05-09T07:30:50.339Z,2.37
2019-05-09T07:33:38.714Z,2.73
2019-05-09T07:36:09.300Z,2.30
2019-05-09T07:38:39.848Z,1.80
2019-05-09T07:41:10.646Z,3.10
2019-05-09T07:43:42.150Z,1.93
2019-05-09T07:46:14.385Z,2.33
2019-05-09T07:48:48.351Z,1.90
2019-05-09T07:51:18.858Z,1.60
2019-05-09T07:53:49.726Z,1.77
2019-05-09T07:56:20.731Z,1.60
2019-05-09T07:58:51.518Z,2.10
2019-05-09T08:01:22.753Z,1.60
2019-05-09T08:03:54.028Z,2.87
2019-05-09T08:06:24.707Z,1.63
2019-05-09T08:08:57.907Z,1.43
2019-05-09T08:11:29.447Z,1.50
2019-05-09T08:14:02.753Z,1.40
2019-05-09T08:16:33.433Z,1.70
2019-05-09T08:19:07.583Z,3.80
2019-05-09T08:21:40.259Z,2.00
2019-05-09T08:24:10.890Z,1.30
2019-05-09T08:26:41.539Z,1.50
2019-05-09T08:29:12.201Z,2.13
2019-05-09T08:31:45.463Z,1.80
2019-05-09T08:34:15.093Z,1.13
2019-05-09T08:36:47.833Z,1.03
2019-05-09T08:39:20.523Z,1.00
2019-05-09T08:41:50.879Z,1.23
2019-05-09T08:44:21.572Z,1.13
2019-05-09T08:46:52.143Z,1.50
2019-05-09T08:49:24.286Z,1.43
2019-05-09T08:52:10.379Z,4.00
2019-05-09T08:54:39.488Z,1.40
2019-05-09T08:57:10.117Z,1.53
2019-05-09T08:59:40.885Z,1.90
2019-05-09T09:02:15.645Z,1.20
2019-05-09T09:04:43.918Z,1.40
2019-05-09T09:07:14.575Z,1.30
2019-05-09T09:09:45.239Z,1.27
2019-05-09T09:12:27.131Z,1.10
2019-05-09T09:14:48.182Z,1.40
2019-05-09T09:17:18.977Z,1.30
2019-05-09T09:19:49.704Z,1.37
2019-05-09T09:22:20.322Z,1.70
2019-05-09T09:24:50.946Z,1.80
2019-05-09T09:27:21.696Z,1.33
2019-05-09T09:29:52.294Z,1.90
2019-05-09T09:32:22.976Z,2.03
2019-05-09T09:42:10.103Z,1.92
2019-05-09T09:44:40.692Z,7.63
2019-05-09T09:47:19.521Z,3.90
2019-05-09T09:49:49.094Z,7.13
2019-05-09T09:52:19.208Z,2.10
2019-05-09T09:54:49.885Z,1.90
2019-05-09T09:57:20.581Z,3.30
2019-05-09T09:59:52.908Z,2.37
2019-05-09T10:02:27.883Z,2.73
2019-05-09T10:04:58.729Z,2.70
2019-05-09T10:07:31.617Z,3.10
2019-05-09T10:10:02.291Z,2.50
2019-05-09T10:12:34.596Z,2.47
2019-05-09T10:15:23.620Z,5.67
2019-05-09T10:18:02.182Z,7.87
2019-05-09T10:20:38.594Z,3.23
2019-05-09T10:23:17.661Z,2.47
2019-05-09T10:25:42.002Z,2.57
2019-05-09T10:28:13.446Z,3.50
2019-05-09T10:30:44.091Z,2.50
2019-05-09T10:33:17.511Z,2.53
2019-05-09T10:35:48.258Z,2.57
2019-05-09T10:38:19.215Z,2.87
2019-05-09T10:40:53.199Z,2.77
2019-05-09T10:43:37.569Z,3.20
2019-05-09T10:46:19.482Z,3.17
2019-05-09T10:48:53.450Z,3.33
2019-05-09T10:51:24.056Z,3.17
2019-05-09T10:53:54.619Z,4.10
2019-05-09T10:56:27.812Z,3.53
2019-05-09T10:58:58.739Z,3.33
2019-05-09T11:01:29.814Z,3.13
2019-05-09T11:04:00.787Z,3.30
2019-05-09T11:06:31.369Z,4.00
2019-05-09T11:28:15.089Z,4.22
2019-05-09T11:30:47.628Z,4.33
2019-05-09T11:33:18.386Z,4.87
2019-05-09T11:49:19.732Z,6.63
2019-05-09T11:51:50.335Z,7.67
2019-05-09T11:54:20.951Z,10.87
2019-05-09T11:56:51.893Z,9.07
2019-05-09T12:12:41.811Z,9.33
2019-05-09T12:15:12.492Z,9.30
2019-05-09T12:17:56.607Z,14.60
2019-05-09T12:20:17.918Z,18.13
2019-05-09T12:22:48.554Z,15.33
2019-05-09T12:25:19.496Z,15.40
2019-05-09T12:27:50.182Z,17.77
2019-05-09T12:30:20.689Z,17.30
2019-05-09T12:32:51.302Z,14.23
2019-05-09T12:35:22.190Z,13.97
2019-05-09T12:37:52.813Z,10.40
2019-05-09T12:40:23.404Z,11.90
2019-05-09T12:42:54.018Z,13.00
2019-05-09T12:45:24.615Z,12.03
2019-05-09T12:48:07.530Z,12.67
2019-05-09T12:50:29.410Z,10.67
2019-05-09T12:53:00.170Z,9.90
2019-05-09T12:55:32.417Z,15.73
2019-05-09T12:58:03.432Z,15.17
2019-05-09T13:00:35.498Z,22.60
2019-05-09T13:03:08.358Z,16.70
2019-05-09T13:05:39.049Z,14.73
2019-05-09T13:08:10.382Z,14.63
2019-05-09T13:10:41.213Z,12.83
2019-05-09T13:13:11.904Z,14.03
2019-05-09T13:15:44.109Z,13.03
2019-05-09T13:18:24.509Z,12.13
2019-05-09T13:21:00.876Z,9.30
2019-05-09T13:23:31.602Z,7.00
2019-05-09T13:26:02.270Z,6.37
2019-05-09T13:28:32.818Z,6.40
2019-05-09T13:31:03.513Z,9.77
2019-05-09T13:33:34.155Z,11.47
2019-05-09T13:36:04.852Z,13.03
2019-05-09T13:38:37.793Z,17.40
2019-05-09T13:41:08.563Z,21.57
2019-05-09T13:43:46.935Z,23.57
2019-05-09T13:46:17.716Z,25.93
2019-05-09T13:49:06.288Z,27.60
2019-05-09T13:51:19.935Z,30.27
2019-05-09T13:53:50.604Z,34.33
2019-05-09T13:56:21.289Z,36.40
2019-05-09T13:58:52.929Z,42.93
2019-05-09T14:01:23.651Z,42.87
2019-05-09T14:03:54.697Z,48.13
2019-05-09T14:06:27.554Z,46.43
2019-05-09T14:08:59.860Z,48.40
2019-05-09T14:11:29.990Z,48.30
2019-05-09T14:14:00.697Z,44.67
2019-05-09T14:16:31.263Z,41.57
2019-05-09T14:19:24.612Z,37.00
2019-05-09T14:21:34.953Z,32.77
2019-05-09T14:24:12.207Z,24.40
2019-05-09T14:26:38.112Z,16.37
2019-05-09T14:29:12.690Z,11.30
2019-05-09T14:31:41.092Z,8.00
2019-05-09T14:34:12.391Z,4.90
2019-05-09T14:36:45.711Z,4.70
2019-05-09T14:39:17.893Z,5.37
2019-05-09T14:41:47.940Z,5.17
2019-05-09T14:44:18.574Z,4.40
2019-05-09T14:46:49.182Z,3.27
2019-05-09T14:49:19.931Z,3.47
2019-05-09T14:51:50.455Z,3.30
2019-05-09T14:54:22.659Z,4.00
2019-05-09T14:56:53.254Z,3.07
2019-05-09T14:59:23.953Z,2.97
2019-05-09T15:01:54.578Z,3.30
2019-05-09T15:04:27.745Z,3.40
2019-05-09T15:06:58.052Z,3.00
2019-05-09T15:09:28.752Z,3.00
2019-05-09T15:11:59.504Z,2.83
2019-05-09T15:14:30.603Z,2.50
2019-05-09T15:17:01.168Z,2.37
2019-05-09T15:19:31.904Z,3.17
2019-05-09T15:22:02.739Z,3.13
2019-05-09T15:24:33.471Z,3.27
2019-05-09T15:27:04.261Z,3.00
2019-05-09T15:29:34.964Z,3.27
2019-05-09T15:32:11.701Z,3.00
2019-05-09T15:34:38.400Z,2.90
2019-05-09T15:37:09.127Z,3.63
2019-05-09T15:39:39.725Z,3.70
2019-05-09T15:42:10.675Z,3.40
2019-05-09T15:44:44.253Z,3.90
2019-05-09T15:47:19.385Z,3.73
2019-05-09T15:49:50.232Z,3.93
2019-05-09T15:52:20.937Z,3.10
2019-05-09T15:54:51.570Z,3.40
2019-05-09T15:57:22.183Z,2.90
2019-05-09T15:59:52.848Z,3.17
2019-05-09T16:02:23.483Z,4.47
2019-05-09T16:04:58.353Z,3.13
2019-05-09T16:07:28.944Z,3.80
2019-05-09T16:09:59.602Z,2.83
2019-05-09T16:12:30.258Z,3.10
2019-05-09T16:15:01.002Z,3.53
2019-05-09T16:17:31.658Z,3.50
2019-05-09T16:20:02.233Z,4.00
2019-05-09T16:22:32.936Z,3.90
2019-05-09T16:25:03.688Z,3.90
2019-05-09T16:27:38.031Z,4.30
2019-05-09T16:30:09.728Z,6.07
2019-05-09T16:32:40.319Z,3.93
2019-05-09T16:35:11.079Z,4.13
2019-05-09T16:38:05.879Z,3.20
2019-05-09T16:40:14.503Z,3.03
2019-05-09T16:42:47.373Z,3.50
2019-05-09T16:45:18.327Z,3.07
2019-05-09T16:47:49.012Z,3.90
2019-05-09T16:50:20.350Z,3.20
2019-05-09T16:52:51.019Z,3.40
2019-05-09T16:55:31.081Z,3.40
2019-05-09T16:57:58.798Z,4.33
2019-05-09T17:00:32.630Z,4.63
2019-05-09T17:03:03.304Z,5.00
2019-05-09T17:05:37.422Z,5.13
2019-05-09T17:08:08.276Z,5.27
2019-05-09T17:10:39.701Z,5.17
2019-05-09T17:13:15.138Z,4.07
2019-05-09T17:15:52.267Z,4.10
2019-05-09T17:18:19.060Z,4.67
2019-05-09T17:20:51.762Z,4.07
2019-05-09T17:23:39.077Z,4.30
2019-05-09T17:26:19.678Z,4.37
2019-05-09T17:28:57.613Z,5.00
2019-05-09T17:31:29.133Z,6.07
2019-05-09T17:34:09.765Z,6.80
2019-05-09T17:36:42.287Z,7.13
2019-05-09T17:39:13.068Z,8.50
2019-05-09T17:41:43.563Z,9.03
2019-05-09T17:44:14.149Z,8.97
2019-05-09T17:46:44.806Z,8.67
2019-05-09T17:49:17.355Z,10.13
2019-05-09T17:51:48.345Z,9.53
2019-05-09T17:54:19.131Z,9.67
2019-05-09T17:56:51.197Z,11.50
2019-05-09T17:59:21.842Z,11.00
2019-05-09T18:01:52.460Z,10.53
2019-05-09T18:04:24.552Z,11.00
2019-05-09T18:06:58.195Z,10.63
2019-05-09T18:09:28.508Z,10.43
2019-05-09T18:12:02.495Z,9.23
2019-05-09T18:14:33.284Z,8.43
2019-05-09T18:17:09.129Z,8.20
2019-05-09T18:19:39.593Z,6.80
2019-05-09T18:22:14.610Z,6.53
2019-05-09T18:24:48.231Z,5.17
2019-05-09T18:27:19.116Z,4.93
2019-05-09T18:29:51.176Z,4.53
2019-05-09T18:32:41.131Z,4.77
2019-05-09T18:35:16.209Z,4.43
2019-05-09T18:37:48.132Z,4.50
2019-05-09T18:40:23.246Z,4.63
2019-05-09T18:42:53.997Z,4.57
2019-05-09T18:45:25.126Z,4.70
2019-05-09T18:47:58.019Z,4.57
2019-05-09T18:50:28.282Z,4.17
2019-05-09T18:52:59.055Z,4.80
2019-05-09T18:55:32.570Z,4.00
2019-05-09T18:58:03.256Z,4.67
2019-05-09T19:00:40.645Z,4.70
2019-05-09T19:03:15.250Z,4.97
2019-05-09T19:05:56.490Z,4.37
2019-05-09T19:08:27.050Z,4.73
2019-05-09T19:10:58.395Z,4.50
2019-05-09T19:13:30.595Z,4.60
2019-05-09T19:16:17.208Z,4.00
2019-05-09T19:18:50.996Z,4.23
2019-05-09T19:21:30.523Z,5.23
2019-05-09T19:24:04.299Z,4.63
2019-05-09T19:26:38.075Z,5.10
2019-05-09T19:29:13.072Z,5.40
2019-05-09T19:31:43.427Z,4.70
2019-05-09T19:34:19.561Z,4.87
2019-05-09T19:36:51.103Z,5.00
2019-05-09T19:39:23.347Z,4.70
2019-05-09T19:41:54.107Z,5.47
2019-05-09T19:44:25.262Z,5.07
2019-05-09T19:46:56.528Z,5.30
2019-05-09T19:49:27.136Z,5.30
2019-05-09T19:51:57.752Z,5.97
2019-05-09T19:54:28.439Z,6.20
2019-05-09T19:57:00.431Z,6.43
2019-05-09T19:59:31.337Z,6.90
2019-05-09T20:02:02.219Z,7.77
2019-05-09T20:04:32.863Z,7.93
2019-05-09T20:07:04.033Z,8.20
2019-05-09T20:09:36.213Z,9.00
2019-05-09T20:12:10.615Z,8.80
2019-05-09T20:14:44.528Z,10.10
2019-05-09T20:17:15.295Z,8.77
2019-05-09T20:19:45.879Z,8.47
2019-05-09T20:22:17.872Z,8.17
2019-05-09T20:24:48.610Z,8.00
2019-05-09T20:27:19.224Z,7.77
2019-05-09T20:29:49.878Z,8.70
2019-05-09T20:32:20.639Z,8.43
2019-05-09T20:34:52.679Z,8.17
2019-05-09T20:37:23.584Z,8.77
2019-05-09T20:39:54.375Z,8.53
2019-05-09T20:42:25.157Z,8.03
2019-05-09T20:44:59.344Z,8.33
2019-05-09T20:47:30.224Z,8.30
2019-05-09T20:50:01.111Z,7.30
2019-05-09T20:52:31.877Z,8.13
2019-05-09T20:55:02.660Z,8.37
2019-05-09T20:57:34.508Z,8.57
2019-05-09T21:00:06.890Z,8.20
2019-05-09T21:02:37.796Z,7.93
2019-05-09T21:05:08.747Z,7.37
2019-05-09T21:07:42.342Z,7.40
2019-05-09T21:10:13.623Z,7.07
2019-05-09T21:12:45.729Z,6.67
2019-05-09T21:15:16.512Z,7.57
2019-05-09T21:17:47.232Z,6.90
2019-05-09T21:20:18.271Z,8.27
2019-05-09T21:22:51.730Z,8.07
2019-05-09T21:25:25.219Z,8.00
2019-05-09T21:27:56.478Z,9.23
2019-05-09T21:30:28.614Z,14.17
2019-05-09T21:32:59.567Z,14.30
2019-05-09T21:35:30.245Z,18.47
2019-05-09T21:38:00.965Z,22.37
2019-05-09T21:40:31.620Z,24.83
2019-05-09T21:43:02.562Z,27.70
2019-05-09T21:45:33.575Z,27.57
2019-05-09T21:48:04.201Z,27.63
2019-05-09T21:50:39.084Z,26.13
2019-05-09T21:53:09.678Z,25.00
2019-05-09T21:55:40.295Z,22.67
2019-05-09T21:58:13.049Z,20.63
2019-05-09T22:00:49.280Z,18.83
2019-05-09T22:03:20.493Z,16.17
2019-05-09T22:05:51.233Z,24.13
2019-05-09T22:08:23.404Z,32.03
2019-05-09T22:10:54.214Z,31.83
2019-05-09T22:13:24.878Z,48.10
2019-05-09T22:15:55.526Z,49.03
2019-05-09T22:18:26.143Z,40.47
2019-05-09T22:20:56.861Z,27.67
2019-05-09T22:23:27.591Z,24.20
2019-05-09T22:25:58.346Z,18.93
2019-05-09T22:28:28.928Z,17.97
2019-05-09T22:30:59.532Z,15.73
2019-05-09T22:33:30.223Z,14.80
2019-05-09T22:36:00.941Z,14.27
2019-05-09T22:38:31.566Z,15.00
2019-05-09T22:41:02.185Z,14.00
2019-05-09T22:43:32.791Z,12.10
2019-05-09T22:46:03.477Z,12.30
2019-05-09T22:48:34.232Z,12.23
2019-05-09T22:51:04.889Z,12.93
2019-05-09T22:53:35.583Z,11.27
2019-05-09T22:56:06.171Z,11.40
2019-05-09T22:58:39.949Z,10.87
2019-05-09T23:01:10.580Z,10.37
2019-05-09T23:03:41.259Z,10.80
2019-05-09T23:06:14.570Z,11.50
2019-05-09T23:08:45.170Z,11.73
2019-05-09T23:11:15.751Z,11.93
2019-05-09T23:13:52.509Z,11.80
2019-05-09T23:16:24.829Z,12.13
2019-05-09T23:18:55.860Z,12.53
2019-05-09T23:21:28.292Z,12.70
2019-05-09T23:24:01.798Z,12.27
2019-05-09T23:26:34.273Z,11.93
2019-05-09T23:29:08.793Z,11.23
2019-05-09T23:31:41.082Z,11.80
2019-05-09T23:34:11.666Z,12.70
2019-05-09T23:36:42.407Z,13.10
2019-05-09T23:39:17.448Z,13.00
2019-05-09T23:41:48.066Z,13.30
2019-05-09T23:44:18.687Z,12.37
2019-05-09T23:46:49.277Z,13.57
2019-05-09T23:49:23.399Z,13.47
2019-05-09T23:51:54.027Z,13.63
2019-05-09T23:54:46.600Z,14.60
2019-05-09T23:57:33.270Z,14.03
